sensor_id;sensor_type;location;lat;lon;timestamp;P1;durP1;ratioP1;P2;durP2;ratioP2
40537;SDS011;27925;41.874;12.526;2023-08-06T00:02:37;6.10;;;2.58;;
40537;SDS011;27925;41.874;12.526;2023-08-06T00:05:03;8.32;;;2.25;;
40537;SDS011;27925;41.874;12.526;2023-08-06T00:07:29;7.90;;;2.30;;
40537;SDS011;27925;41.874;12.526;2023-08-06T00:09:56;9.95;;;2.75;;
40537;SDS011;27925;41.874;12.526;2023-08-06T00:12:22;9.38;;;2.58;;
40537;SDS011;27925;41.874;12.526;2023-08-06T00:14:51;10.02;;;3.35;;
40537;SDS011;27925;41.874;12.526;2023-08-06T00:17:17;10.40;;;2.58;;
40537;SDS011;27925;41.874;12.526;2023-08-06T00:19:43;10.65;;;2.55;;
40537;SDS011;27925;41.874;12.526;2023-08-06T00:22:09;6.38;;;2.60;;
40537;SDS011;27925;41.874;12.526;2023-08-06T00:24:35;11.82;;;3.75;;
40537;SDS011;27925;41.874;12.526;2023-08-06T00:27:01;10.80;;;3.70;;
40537;SDS011;27925;41.874;12.526;2023-08-06T00:29:28;6.82;;;3.40;;
40537;SDS011;27925;41.874;12.526;2023-08-06T00:31:53;9.30;;;3.72;;
40537;SDS011;27925;41.874;12.526;2023-08-06T00:34:19;9.40;;;3.90;;
40537;SDS011;27925;41.874;12.526;2023-08-06T00:36:45;12.32;;;4.28;;
40537;SDS011;27925;41.874;12.526;2023-08-06T00:39:11;10.93;;;4.55;;
40537;SDS011;27925;41.874;12.526;2023-08-06T00:41:37;11.20;;;4.43;;
40537;SDS011;27925;41.874;12.526;2023-08-06T00:44:03;10.75;;;3.90;;
40537;SDS011;27925;41.874;12.526;2023-08-06T00:46:29;9.50;;;4.57;;
40537;SDS011;27925;41.874;12.526;2023-08-06T00:48:55;11.10;;;4.40;;
40537;SDS011;27925;41.874;12.526;2023-08-06T00:51:21;12.07;;;4.80;;
40537;SDS011;27925;41.874;12.526;2023-08-06T00:53:48;7.85;;;4.13;;
40537;SDS011;27925;41.874;12.526;2023-08-06T00:56:15;9.80;;;4.40;;
40537;SDS011;27925;41.874;12.526;2023-08-06T00:58:41;12.63;;;4.72;;
40537;SDS011;27925;41.874;12.526;2023-08-06T01:01:07;10.82;;;4.03;;
40537;SDS011;27925;41.874;12.526;2023-08-06T01:03:33;11.18;;;4.47;;
40537;SDS011;27925;41.874;12.526;2023-08-06T01:05:58;17.10;;;5.18;;
40537;SDS011;27925;41.874;12.526;2023-08-06T01:16:12;7.60;;;3.58;;
40537;SDS011;27925;41.874;12.526;2023-08-06T01:18:40;8.30;;;3.80;;
40537;SDS011;27925;41.874;12.526;2023-08-06T01:21:08;8.10;;;3.67;;
40537;SDS011;27925;41.874;12.526;2023-08-06T01:23:34;8.25;;;3.97;;
40537;SDS011;27925;41.874;12.526;2023-08-06T01:29:30;8.80;;;3.53;;
40537;SDS011;27925;41.874;12.526;2023-08-06T01:31:43;9.55;;;3.10;;
40537;SDS011;27925;41.874;12.526;2023-08-06T01:34:13;12.32;;;3.60;;
40537;SDS011;27925;41.874;12.526;2023-08-06T01:36:44;7.68;;;2.65;;
40537;SDS011;27925;41.874;12.526;2023-08-06T01:39:10;8.65;;;3.20;;
40537;SDS011;27925;41.874;12.526;2023-08-06T01:41:36;9.77;;;3.53;;
40537;SDS011;27925;41.874;12.526;2023-08-06T01:44:02;8.57;;;3.00;;
40537;SDS011;27925;41.874;12.526;2023-08-06T01:46:27;9.00;;;3.03;;
40537;SDS011;27925;41.874;12.526;2023-08-06T01:48:53;11.20;;;3.30;;
40537;SDS011;27925;41.874;12.526;2023-08-06T01:51:19;10.23;;;3.85;;
40537;SDS011;27925;41.874;12.526;2023-08-06T01:53:44;9.27;;;2.80;;
40537;SDS011;27925;41.874;12.526;2023-08-06T01:56:10;11.93;;;3.20;;
40537;SDS011;27925;41.874;12.526;2023-08-06T01:58:36;11.55;;;2.92;;
40537;SDS011;27925;41.874;12.526;2023-08-06T02:01:02;8.88;;;2.70;;
40537;SDS011;27925;41.874;12.526;2023-08-06T02:03:27;8.25;;;2.40;;
40537;SDS011;27925;41.874;12.526;2023-08-06T02:05:53;6.47;;;2.60;;
40537;SDS011;27925;41.874;12.526;2023-08-06T02:08:19;7.75;;;2.50;;
40537;SDS011;27925;41.874;12.526;2023-08-06T02:10:45;7.35;;;2.88;;
40537;SDS011;27925;41.874;12.526;2023-08-06T02:13:10;12.18;;;2.75;;
40537;SDS011;27925;41.874;12.526;2023-08-06T02:15:41;6.90;;;2.50;;
40537;SDS011;27925;41.874;12.526;2023-08-06T02:18:08;8.38;;;2.60;;
40537;SDS011;27925;41.874;12.526;2023-08-06T02:20:34;8.07;;;2.22;;
40537;SDS011;27925;41.874;12.526;2023-08-06T02:22:59;5.90;;;2.15;;
40537;SDS011;27925;41.874;12.526;2023-08-06T02:25:25;7.80;;;2.45;;
40537;SDS011;27925;41.874;12.526;2023-08-06T02:27:51;5.50;;;2.30;;
40537;SDS011;27925;41.874;12.526;2023-08-06T02:30:16;7.97;;;2.38;;
40537;SDS011;27925;41.874;12.526;2023-08-06T02:32:42;10.07;;;2.80;;
40537;SDS011;27925;41.874;12.526;2023-08-06T02:35:08;5.95;;;2.58;;
40537;SDS011;27925;41.874;12.526;2023-08-06T02:37:34;6.35;;;2.08;;
40537;SDS011;27925;41.874;12.526;2023-08-06T02:39:59;8.73;;;2.45;;
40537;SDS011;27925;41.874;12.526;2023-08-06T02:42:25;5.88;;;2.60;;
40537;SDS011;27925;41.874;12.526;2023-08-06T02:44:52;7.30;;;2.60;;
40537;SDS011;27925;41.874;12.526;2023-08-06T02:47:20;9.05;;;2.40;;
40537;SDS011;27925;41.874;12.526;2023-08-06T02:49:46;9.10;;;2.60;;
40537;SDS011;27925;41.874;12.526;2023-08-06T02:52:11;8.85;;;2.33;;
40537;SDS011;27925;41.874;12.526;2023-08-06T02:54:37;8.15;;;2.50;;
40537;SDS011;27925;41.874;12.526;2023-08-06T02:57:03;11.15;;;2.83;;
40537;SDS011;27925;41.874;12.526;2023-08-06T02:59:30;6.50;;;2.42;;
40537;SDS011;27925;41.874;12.526;2023-08-06T03:01:56;10.27;;;2.53;;
40537;SDS011;27925;41.874;12.526;2023-08-06T03:04:22;8.32;;;2.45;;
40537;SDS011;27925;41.874;12.526;2023-08-06T03:06:49;6.82;;;2.45;;
40537;SDS011;27925;41.874;12.526;2023-08-06T03:09:15;6.72;;;2.70;;
40537;SDS011;27925;41.874;12.526;2023-08-06T03:11:41;6.68;;;2.53;;
40537;SDS011;27925;41.874;12.526;2023-08-06T03:14:06;8.23;;;2.60;;
40537;SDS011;27925;41.874;12.526;2023-08-06T03:16:32;6.85;;;2.10;;
40537;SDS011;27925;41.874;12.526;2023-08-06T03:18:58;5.45;;;2.10;;
40537;SDS011;27925;41.874;12.526;2023-08-06T03:21:23;6.97;;;2.90;;
40537;SDS011;27925;41.874;12.526;2023-08-06T03:23:49;8.73;;;2.85;;
40537;SDS011;27925;41.874;12.526;2023-08-06T03:26:15;7.15;;;2.20;;
40537;SDS011;27925;41.874;12.526;2023-08-06T03:28:41;8.15;;;2.80;;
40537;SDS011;27925;41.874;12.526;2023-08-06T03:31:06;5.43;;;2.50;;
40537;SDS011;27925;41.874;12.526;2023-08-06T03:33:32;5.68;;;2.22;;
40537;SDS011;27925;41.874;12.526;2023-08-06T03:35:58;8.98;;;2.40;;
40537;SDS011;27925;41.874;12.526;2023-08-06T03:38:24;9.02;;;2.55;;
40537;SDS011;27925;41.874;12.526;2023-08-06T03:40:49;7.25;;;2.33;;
40537;SDS011;27925;41.874;12.526;2023-08-06T03:43:15;8.90;;;3.00;;
40537;SDS011;27925;41.874;12.526;2023-08-06T03:45:41;10.85;;;2.85;;
40537;SDS011;27925;41.874;12.526;2023-08-06T03:48:07;8.13;;;3.10;;
40537;SDS011;27925;41.874;12.526;2023-08-06T03:50:33;6.15;;;2.63;;
40537;SDS011;27925;41.874;12.526;2023-08-06T03:52:59;7.18;;;3.10;;
40537;SDS011;27925;41.874;12.526;2023-08-06T03:55:25;11.02;;;2.13;;
40537;SDS011;27925;41.874;12.526;2023-08-06T03:57:51;6.47;;;2.50;;
40537;SDS011;27925;41.874;12.526;2023-08-06T04:00:17;8.15;;;2.50;;
40537;SDS011;27925;41.874;12.526;2023-08-06T04:02:42;8.02;;;2.42;;
40537;SDS011;27925;41.874;12.526;2023-08-06T04:05:08;6.97;;;2.40;;
40537;SDS011;27925;41.874;12.526;2023-08-06T04:07:34;4.82;;;2.10;;
40537;SDS011;27925;41.874;12.526;2023-08-06T04:10:01;6.28;;;2.42;;
40537;SDS011;27925;41.874;12.526;2023-08-06T04:12:28;9.05;;;2.47;;
40537;SDS011;27925;41.874;12.526;2023-08-06T04:14:55;6.88;;;2.40;;
40537;SDS011;27925;41.874;12.526;2023-08-06T04:17:22;7.88;;;2.10;;
40537;SDS011;27925;41.874;12.526;2023-08-06T04:19:52;6.95;;;2.20;;
40537;SDS011;27925;41.874;12.526;2023-08-06T04:22:19;6.22;;;2.60;;
40537;SDS011;27925;41.874;12.526;2023-08-06T04:24:45;9.65;;;2.35;;
40537;SDS011;27925;41.874;12.526;2023-08-06T04:27:11;6.57;;;2.30;;
40537;SDS011;27925;41.874;12.526;2023-08-06T04:29:38;5.40;;;2.30;;
40537;SDS011;27925;41.874;12.526;2023-08-06T04:32:05;7.80;;;2.25;;
40537;SDS011;27925;41.874;12.526;2023-08-06T04:34:32;8.73;;;2.35;;
40537;SDS011;27925;41.874;12.526;2023-08-06T04:36:59;9.27;;;2.72;;
40537;SDS011;27925;41.874;12.526;2023-08-06T04:39:25;6.78;;;2.42;;
40537;SDS011;27925;41.874;12.526;2023-08-06T04:41:51;6.53;;;2.70;;
40537;SDS011;27925;41.874;12.526;2023-08-06T04:44:16;7.10;;;2.40;;
40537;SDS011;27925;41.874;12.526;2023-08-06T04:46:42;6.15;;;1.90;;
40537;SDS011;27925;41.874;12.526;2023-08-06T04:49:08;5.45;;;2.10;;
40537;SDS011;27925;41.874;12.526;2023-08-06T04:51:34;6.95;;;2.40;;
40537;SDS011;27925;41.874;12.526;2023-08-06T04:53:59;7.13;;;2.38;;
40537;SDS011;27925;41.874;12.526;2023-08-06T04:56:25;5.97;;;2.38;;
40537;SDS011;27925;41.874;12.526;2023-08-06T04:58:51;10.68;;;2.70;;
40537;SDS011;27925;41.874;12.526;2023-08-06T05:01:17;12.40;;;3.15;;
40537;SDS011;27925;41.874;12.526;2023-08-06T05:03:43;8.93;;;2.88;;
40537;SDS011;27925;41.874;12.526;2023-08-06T05:06:08;7.03;;;2.10;;
40537;SDS011;27925;41.874;12.526;2023-08-06T05:08:34;8.18;;;2.65;;
40537;SDS011;27925;41.874;12.526;2023-08-06T05:11:00;8.73;;;3.03;;
40537;SDS011;27925;41.874;12.526;2023-08-06T05:13:25;9.15;;;2.75;;
40537;SDS011;27925;41.874;12.526;2023-08-06T05:15:53;8.32;;;2.70;;
40537;SDS011;27925;41.874;12.526;2023-08-06T05:18:19;6.32;;;2.53;;
40537;SDS011;27925;41.874;12.526;2023-08-06T05:20:44;4.70;;;2.42;;
40537;SDS011;27925;41.874;12.526;2023-08-06T05:23:10;9.40;;;4.00;;
40537;SDS011;27925;41.874;12.526;2023-08-06T05:25:36;8.70;;;3.20;;
40537;SDS011;27925;41.874;12.526;2023-08-06T05:28:03;5.65;;;2.67;;
40537;SDS011;27925;41.874;12.526;2023-08-06T05:30:29;14.23;;;2.88;;
40537;SDS011;27925;41.874;12.526;2023-08-06T05:32:55;6.15;;;2.55;;
40537;SDS011;27925;41.874;12.526;2023-08-06T05:35:21;7.65;;;2.90;;
40537;SDS011;27925;41.874;12.526;2023-08-06T05:37:47;6.85;;;2.40;;
40537;SDS011;27925;41.874;12.526;2023-08-06T05:40:13;7.80;;;2.33;;
40537;SDS011;27925;41.874;12.526;2023-08-06T05:42:39;7.70;;;2.90;;
40537;SDS011;27925;41.874;12.526;2023-08-06T05:45:06;7.85;;;3.13;;
40537;SDS011;27925;41.874;12.526;2023-08-06T05:47:32;8.63;;;3.00;;
40537;SDS011;27925;41.874;12.526;2023-08-06T05:49:57;11.68;;;3.13;;
40537;SDS011;27925;41.874;12.526;2023-08-06T05:52:23;9.85;;;3.17;;
40537;SDS011;27925;41.874;12.526;2023-08-06T05:54:49;8.70;;;4.30;;
40537;SDS011;27925;41.874;12.526;2023-08-06T05:57:15;10.95;;;3.40;;
40537;SDS011;27925;41.874;12.526;2023-08-06T05:59:41;9.43;;;3.10;;
40537;SDS011;27925;41.874;12.526;2023-08-06T06:02:07;8.88;;;3.60;;
40537;SDS011;27925;41.874;12.526;2023-08-06T06:04:33;8.23;;;4.63;;
40537;SDS011;27925;41.874;12.526;2023-08-06T06:06:59;10.05;;;3.63;;
40537;SDS011;27925;41.874;12.526;2023-08-06T06:09:25;10.73;;;3.78;;
40537;SDS011;27925;41.874;12.526;2023-08-06T06:11:50;6.85;;;3.00;;
40537;SDS011;27925;41.874;12.526;2023-08-06T06:14:17;7.93;;;3.00;;
40537;SDS011;27925;41.874;12.526;2023-08-06T06:16:43;9.50;;;2.78;;
40537;SDS011;27925;41.874;12.526;2023-08-06T06:19:09;11.02;;;3.38;;
40537;SDS011;27925;41.874;12.526;2023-08-06T06:21:35;7.32;;;3.13;;
40537;SDS011;27925;41.874;12.526;2023-08-06T06:24:02;11.40;;;2.83;;
40537;SDS011;27925;41.874;12.526;2023-08-06T06:26:29;7.35;;;2.60;;
40537;SDS011;27925;41.874;12.526;2023-08-06T06:28:55;10.52;;;2.90;;
40537;SDS011;27925;41.874;12.526;2023-08-06T06:31:20;10.90;;;2.92;;
40537;SDS011;27925;41.874;12.526;2023-08-06T06:33:46;7.20;;;2.63;;
40537;SDS011;27925;41.874;12.526;2023-08-06T06:36:12;8.00;;;3.15;;
40537;SDS011;27925;41.874;12.526;2023-08-06T06:38:38;9.98;;;3.65;;
40537;SDS011;27925;41.874;12.526;2023-08-06T06:41:03;8.25;;;2.90;;
40537;SDS011;27925;41.874;12.526;2023-08-06T06:43:29;7.53;;;3.75;;
40537;SDS011;27925;41.874;12.526;2023-08-06T06:45:58;9.80;;;3.47;;
40537;SDS011;27925;41.874;12.526;2023-08-06T06:48:28;8.13;;;3.65;;
40537;SDS011;27925;41.874;12.526;2023-08-06T06:50:54;7.75;;;3.08;;
40537;SDS011;27925;41.874;12.526;2023-08-06T06:53:20;8.90;;;3.40;;
40537;SDS011;27925;41.874;12.526;2023-08-06T06:55:52;6.18;;;3.10;;
40537;SDS011;27925;41.874;12.526;2023-08-06T06:58:21;6.65;;;2.67;;
40537;SDS011;27925;41.874;12.526;2023-08-06T07:00:48;9.32;;;3.30;;
40537;SDS011;27925;41.874;12.526;2023-08-06T07:03:14;10.68;;;3.22;;
40537;SDS011;27925;41.874;12.526;2023-08-06T07:05:40;10.07;;;2.97;;
40537;SDS011;27925;41.874;12.526;2023-08-06T07:08:07;8.43;;;3.10;;
40537;SDS011;27925;41.874;12.526;2023-08-06T07:10:32;7.30;;;2.95;;
40537;SDS011;27925;41.874;12.526;2023-08-06T07:12:58;5.93;;;2.72;;
40537;SDS011;27925;41.874;12.526;2023-08-06T07:15:24;9.57;;;3.00;;
40537;SDS011;27925;41.874;12.526;2023-08-06T07:17:49;8.93;;;3.17;;
40537;SDS011;27925;41.874;12.526;2023-08-06T07:20:15;10.95;;;3.10;;
40537;SDS011;27925;41.874;12.526;2023-08-06T07:22:41;12.57;;;3.40;;
40537;SDS011;27925;41.874;12.526;2023-08-06T07:25:07;12.45;;;3.33;;
40537;SDS011;27925;41.874;12.526;2023-08-06T07:27:33;19.23;;;4.13;;
40537;SDS011;27925;41.874;12.526;2023-08-06T07:29:58;16.58;;;3.90;;
40537;SDS011;27925;41.874;12.526;2023-08-06T07:32:24;13.77;;;4.00;;
40537;SDS011;27925;41.874;12.526;2023-08-06T07:34:50;15.13;;;3.63;;
40537;SDS011;27925;41.874;12.526;2023-08-06T07:37:21;18.13;;;4.40;;
40537;SDS011;27925;41.874;12.526;2023-08-06T07:39:47;15.30;;;4.10;;
40537;SDS011;27925;41.874;12.526;2023-08-06T07:42:13;16.55;;;4.55;;
40537;SDS011;27925;41.874;12.526;2023-08-06T07:44:39;20.13;;;4.90;;
40537;SDS011;27925;41.874;12.526;2023-08-06T07:47:05;15.98;;;3.88;;
40537;SDS011;27925;41.874;12.526;2023-08-06T07:49:30;16.55;;;4.28;;
40537;SDS011;27925;41.874;12.526;2023-08-06T07:51:56;20.15;;;4.80;;
40537;SDS011;27925;41.874;12.526;2023-08-06T07:54:22;12.85;;;3.65;;
40537;SDS011;27925;41.874;12.526;2023-08-06T07:56:49;12.02;;;4.15;;
40537;SDS011;27925;41.874;12.526;2023-08-06T07:59:15;13.68;;;3.58;;
40537;SDS011;27925;41.874;12.526;2023-08-06T08:01:41;21.58;;;4.68;;
40537;SDS011;27925;41.874;12.526;2023-08-06T08:04:06;13.23;;;4.13;;
40537;SDS011;27925;41.874;12.526;2023-08-06T08:06:33;15.20;;;4.25;;
40537;SDS011;27925;41.874;12.526;2023-08-06T08:08:58;19.63;;;4.10;;
40537;SDS011;27925;41.874;12.526;2023-08-06T08:11:25;26.65;;;5.72;;
40537;SDS011;27925;41.874;12.526;2023-08-06T08:13:51;24.52;;;5.63;;
40537;SDS011;27925;41.874;12.526;2023-08-06T08:16:17;29.65;;;6.35;;
40537;SDS011;27925;41.874;12.526;2023-08-06T08:18:42;28.35;;;5.88;;
40537;SDS011;27925;41.874;12.526;2023-08-06T08:21:08;34.10;;;6.95;;
40537;SDS011;27925;41.874;12.526;2023-08-06T08:23:34;28.52;;;5.70;;
40537;SDS011;27925;41.874;12.526;2023-08-06T08:25:59;22.42;;;5.30;;
40537;SDS011;27925;41.874;12.526;2023-08-06T08:28:27;27.23;;;6.22;;
40537;SDS011;27925;41.874;12.526;2023-08-06T08:30:52;22.08;;;5.85;;
40537;SDS011;27925;41.874;12.526;2023-08-06T08:33:18;25.55;;;5.78;;
40537;SDS011;27925;41.874;12.526;2023-08-06T08:35:45;25.10;;;6.53;;
40537;SDS011;27925;41.874;12.526;2023-08-06T08:38:12;21.90;;;6.28;;
40537;SDS011;27925;41.874;12.526;2023-08-06T08:40:45;27.83;;;6.38;;
40537;SDS011;27925;41.874;12.526;2023-08-06T08:43:14;23.52;;;5.25;;
40537;SDS011;27925;41.874;12.526;2023-08-06T08:45:41;23.30;;;5.80;;
40537;SDS011;27925;41.874;12.526;2023-08-06T08:48:09;23.77;;;5.57;;
40537;SDS011;27925;41.874;12.526;2023-08-06T08:50:39;23.27;;;5.80;;
40537;SDS011;27925;41.874;12.526;2023-08-06T08:53:05;26.88;;;6.35;;
40537;SDS011;27925;41.874;12.526;2023-08-06T08:55:31;23.83;;;5.15;;
40537;SDS011;27925;41.874;12.526;2023-08-06T08:57:57;25.83;;;5.78;;
40537;SDS011;27925;41.874;12.526;2023-08-06T09:00:23;23.65;;;5.60;;
40537;SDS011;27925;41.874;12.526;2023-08-06T09:02:50;16.35;;;5.15;;
40537;SDS011;27925;41.874;12.526;2023-08-06T09:05:17;17.90;;;4.53;;
40537;SDS011;27925;41.874;12.526;2023-08-06T09:07:46;18.63;;;5.07;;
40537;SDS011;27925;41.874;12.526;2023-08-06T09:10:14;20.60;;;4.93;;
40537;SDS011;27925;41.874;12.526;2023-08-06T09:12:43;20.50;;;4.82;;
40537;SDS011;27925;41.874;12.526;2023-08-06T09:15:09;26.92;;;5.50;;
40537;SDS011;27925;41.874;12.526;2023-08-06T09:17:36;22.25;;;5.28;;
40537;SDS011;27925;41.874;12.526;2023-08-06T09:20:14;20.77;;;5.22;;
40537;SDS011;27925;41.874;12.526;2023-08-06T09:22:40;22.02;;;5.30;;
40537;SDS011;27925;41.874;12.526;2023-08-06T09:25:07;17.48;;;4.65;;
40537;SDS011;27925;41.874;12.526;2023-08-06T09:27:36;21.50;;;5.30;;
40537;SDS011;27925;41.874;12.526;2023-08-06T09:30:03;23.60;;;5.43;;
40537;SDS011;27925;41.874;12.526;2023-08-06T09:32:44;30.85;;;5.18;;
40537;SDS011;27925;41.874;12.526;2023-08-06T09:35:14;27.60;;;5.57;;
40537;SDS011;27925;41.874;12.526;2023-08-06T09:37:41;20.38;;;6.13;;
40537;SDS011;27925;41.874;12.526;2023-08-06T09:42:56;23.95;;;5.57;;
40537;SDS011;27925;41.874;12.526;2023-08-06T09:45:22;22.83;;;5.50;;
40537;SDS011;27925;41.874;12.526;2023-08-06T09:47:52;22.33;;;5.82;;
40537;SDS011;27925;41.874;12.526;2023-08-06T09:50:21;22.70;;;5.65;;
40537;SDS011;27925;41.874;12.526;2023-08-06T09:52:48;21.02;;;5.57;;
40537;SDS011;27925;41.874;12.526;2023-08-06T09:55:15;22.58;;;6.13;;
40537;SDS011;27925;41.874;12.526;2023-08-06T09:57:41;20.27;;;5.85;;
40537;SDS011;27925;41.874;12.526;2023-08-06T10:00:08;23.17;;;5.13;;
40537;SDS011;27925;41.874;12.526;2023-08-06T10:02:35;23.88;;;5.50;;
40537;SDS011;27925;41.874;12.526;2023-08-06T10:05:03;21.77;;;5.63;;
40537;SDS011;27925;41.874;12.526;2023-08-06T10:07:29;20.92;;;5.20;;
40537;SDS011;27925;41.874;12.526;2023-08-06T10:09:55;24.17;;;5.57;;
40537;SDS011;27925;41.874;12.526;2023-08-06T10:12:22;22.65;;;5.78;;
40537;SDS011;27925;41.874;12.526;2023-08-06T10:14:50;23.35;;;5.93;;
40537;SDS011;27925;41.874;12.526;2023-08-06T10:17:20;18.58;;;4.88;;
40537;SDS011;27925;41.874;12.526;2023-08-06T10:19:47;24.17;;;5.88;;
40537;SDS011;27925;41.874;12.526;2023-08-06T10:22:15;20.77;;;5.60;;
40537;SDS011;27925;41.874;12.526;2023-08-06T10:27:31;27.83;;;5.17;;
40537;SDS011;27925;41.874;12.526;2023-08-06T10:30:26;21.65;;;5.68;;
40537;SDS011;27925;41.874;12.526;2023-08-06T10:33:00;19.90;;;4.95;;
40537;SDS011;27925;41.874;12.526;2023-08-06T10:35:31;26.33;;;5.32;;
40537;SDS011;27925;41.874;12.526;2023-08-06T10:40:42;22.05;;;5.75;;
40537;SDS011;27925;41.874;12.526;2023-08-06T10:46:03;20.65;;;5.60;;
40537;SDS011;27925;41.874;12.526;2023-08-06T10:48:38;18.38;;;4.97;;
40537;SDS011;27925;41.874;12.526;2023-08-06T10:51:09;20.00;;;4.55;;
40537;SDS011;27925;41.874;12.526;2023-08-06T10:53:36;23.75;;;5.90;;
40537;SDS011;27925;41.874;12.526;2023-08-06T10:56:11;20.15;;;4.72;;
40537;SDS011;27925;41.874;12.526;2023-08-06T10:58:41;21.20;;;5.30;;
40537;SDS011;27925;41.874;12.526;2023-08-06T11:01:07;22.92;;;5.55;;
40537;SDS011;27925;41.874;12.526;2023-08-06T11:03:33;20.25;;;5.03;;
40537;SDS011;27925;41.874;12.526;2023-08-06T11:06:00;18.50;;;5.25;;
40537;SDS011;27925;41.874;12.526;2023-08-06T11:08:26;23.90;;;5.53;;
40537;SDS011;27925;41.874;12.526;2023-08-06T11:10:53;17.45;;;5.20;;
40537;SDS011;27925;41.874;12.526;2023-08-06T11:13:19;20.63;;;4.90;;
40537;SDS011;27925;41.874;12.526;2023-08-06T11:15:45;17.52;;;4.72;;
40537;SDS011;27925;41.874;12.526;2023-08-06T11:18:11;24.17;;;5.47;;
40537;SDS011;27925;41.874;12.526;2023-08-06T11:20:37;18.75;;;4.90;;
40537;SDS011;27925;41.874;12.526;2023-08-06T11:23:04;17.48;;;5.30;;
40537;SDS011;27925;41.874;12.526;2023-08-06T11:25:30;23.77;;;5.45;;
40537;SDS011;27925;41.874;12.526;2023-08-06T11:27:56;20.95;;;5.03;;
40537;SDS011;27925;41.874;12.526;2023-08-06T11:30:22;17.90;;;5.00;;
40537;SDS011;27925;41.874;12.526;2023-08-06T11:32:48;19.08;;;4.55;;
40537;SDS011;27925;41.874;12.526;2023-08-06T11:35:14;21.67;;;5.32;;
40537;SDS011;27925;41.874;12.526;2023-08-06T11:37:47;17.65;;;4.88;;
40537;SDS011;27925;41.874;12.526;2023-08-06T11:40:14;19.48;;;4.95;;
40537;SDS011;27925;41.874;12.526;2023-08-06T11:42:40;22.98;;;5.22;;
40537;SDS011;27925;41.874;12.526;2023-08-06T11:45:07;22.33;;;5.10;;
40537;SDS011;27925;41.874;12.526;2023-08-06T11:47:37;17.73;;;4.68;;
40537;SDS011;27925;41.874;12.526;2023-08-06T11:50:05;18.85;;;5.10;;
40537;SDS011;27925;41.874;12.526;2023-08-06T11:52:31;16.42;;;4.30;;
40537;SDS011;27925;41.874;12.526;2023-08-06T11:57:35;18.42;;;5.40;;
40537;SDS011;27925;41.874;12.526;2023-08-06T12:02:34;21.35;;;5.85;;
40537;SDS011;27925;41.874;12.526;2023-08-06T12:05:03;22.02;;;5.15;;
40537;SDS011;27925;41.874;12.526;2023-08-06T12:07:39;23.00;;;4.95;;
40537;SDS011;27925;41.874;12.526;2023-08-06T12:10:12;15.63;;;4.57;;
40537;SDS011;27925;41.874;12.526;2023-08-06T12:12:39;19.77;;;5.00;;
40537;SDS011;27925;41.874;12.526;2023-08-06T12:15:05;16.35;;;4.65;;
40537;SDS011;27925;41.874;12.526;2023-08-06T12:17:32;17.02;;;4.43;;
40537;SDS011;27925;41.874;12.526;2023-08-06T12:19:58;21.58;;;4.72;;
40537;SDS011;27925;41.874;12.526;2023-08-06T12:22:24;19.52;;;4.93;;
40537;SDS011;27925;41.874;12.526;2023-08-06T12:24:50;17.42;;;4.82;;
40537;SDS011;27925;41.874;12.526;2023-08-06T12:27:15;18.17;;;5.10;;
40537;SDS011;27925;41.874;12.526;2023-08-06T12:29:42;23.55;;;5.30;;
40537;SDS011;27925;41.874;12.526;2023-08-06T12:32:12;17.80;;;5.28;;
40537;SDS011;27925;41.874;12.526;2023-08-06T12:34:39;22.00;;;4.90;;
40537;SDS011;27925;41.874;12.526;2023-08-06T12:37:06;16.25;;;5.25;;
40537;SDS011;27925;41.874;12.526;2023-08-06T12:39:35;12.63;;;4.40;;
40537;SDS011;27925;41.874;12.526;2023-08-06T12:42:02;26.13;;;5.45;;
40537;SDS011;27925;41.874;12.526;2023-08-06T12:44:29;19.65;;;4.80;;
40537;SDS011;27925;41.874;12.526;2023-08-06T12:46:55;18.33;;;5.53;;
40537;SDS011;27925;41.874;12.526;2023-08-06T12:49:21;18.17;;;5.13;;
40537;SDS011;27925;41.874;12.526;2023-08-06T12:51:50;18.55;;;5.22;;
40537;SDS011;27925;41.874;12.526;2023-08-06T12:54:16;18.20;;;4.95;;
40537;SDS011;27925;41.874;12.526;2023-08-06T12:56:43;15.27;;;4.80;;
40537;SDS011;27925;41.874;12.526;2023-08-06T12:59:09;15.45;;;4.43;;
40537;SDS011;27925;41.874;12.526;2023-08-06T13:01:36;18.52;;;4.85;;
40537;SDS011;27925;41.874;12.526;2023-08-06T13:04:02;19.23;;;5.60;;
40537;SDS011;27925;41.874;12.526;2023-08-06T13:06:28;23.00;;;5.40;;
40537;SDS011;27925;41.874;12.526;2023-08-06T13:08:54;20.23;;;4.85;;
40537;SDS011;27925;41.874;12.526;2023-08-06T13:11:20;16.42;;;4.78;;
40537;SDS011;27925;41.874;12.526;2023-08-06T13:13:46;45.97;;;7.40;;
40537;SDS011;27925;41.874;12.526;2023-08-06T13:16:11;19.08;;;5.22;;
40537;SDS011;27925;41.874;12.526;2023-08-06T13:18:37;18.13;;;4.72;;
40537;SDS011;27925;41.874;12.526;2023-08-06T13:21:03;20.02;;;5.75;;
40537;SDS011;27925;41.874;12.526;2023-08-06T13:23:29;19.17;;;5.40;;
40537;SDS011;27925;41.874;12.526;2023-08-06T13:25:54;19.48;;;4.53;;
40537;SDS011;27925;41.874;12.526;2023-08-06T13:28:20;16.88;;;4.93;;
40537;SDS011;27925;41.874;12.526;2023-08-06T13:30:46;23.00;;;5.18;;
40537;SDS011;27925;41.874;12.526;2023-08-06T13:33:12;17.80;;;4.53;;
40537;SDS011;27925;41.874;12.526;2023-08-06T13:35:38;23.65;;;5.10;;
40537;SDS011;27925;41.874;12.526;2023-08-06T13:38:03;23.70;;;4.63;;
40537;SDS011;27925;41.874;12.526;2023-08-06T13:40:32;16.55;;;4.50;;
40537;SDS011;27925;41.874;12.526;2023-08-06T13:42:58;15.52;;;4.10;;
40537;SDS011;27925;41.874;12.526;2023-08-06T13:45:24;17.65;;;4.53;;
40537;SDS011;27925;41.874;12.526;2023-08-06T13:47:50;16.60;;;4.60;;
40537;SDS011;27925;41.874;12.526;2023-08-06T13:50:16;18.92;;;4.32;;
40537;SDS011;27925;41.874;12.526;2023-08-06T13:52:42;19.65;;;4.68;;
40537;SDS011;27925;41.874;12.526;2023-08-06T13:55:07;23.55;;;5.50;;
40537;SDS011;27925;41.874;12.526;2023-08-06T13:57:34;18.35;;;4.47;;
40537;SDS011;27925;41.874;12.526;2023-08-06T14:00:00;12.95;;;4.05;;
40537;SDS011;27925;41.874;12.526;2023-08-06T14:02:26;16.25;;;4.45;;
40537;SDS011;27925;41.874;12.526;2023-08-06T14:04:52;15.73;;;4.13;;
40537;SDS011;27925;41.874;12.526;2023-08-06T14:07:18;20.27;;;5.05;;
40537;SDS011;27925;41.874;12.526;2023-08-06T14:09:44;18.70;;;4.65;;
40537;SDS011;27925;41.874;12.526;2023-08-06T14:12:12;18.98;;;4.20;;
40537;SDS011;27925;41.874;12.526;2023-08-06T14:14:38;17.52;;;4.30;;
40537;SDS011;27925;41.874;12.526;2023-08-06T14:17:03;18.25;;;4.35;;
40537;SDS011;27925;41.874;12.526;2023-08-06T14:19:29;13.70;;;3.83;;
40537;SDS011;27925;41.874;12.526;2023-08-06T14:21:55;18.23;;;4.20;;
40537;SDS011;27925;41.874;12.526;2023-08-06T14:24:21;12.68;;;4.05;;
40537;SDS011;27925;41.874;12.526;2023-08-06T14:26:46;19.30;;;4.30;;
40537;SDS011;27925;41.874;12.526;2023-08-06T14:41:25;18.77;;;4.15;;
40537;SDS011;27925;41.874;12.526;2023-08-06T14:43:50;21.08;;;4.32;;
40537;SDS011;27925;41.874;12.526;2023-08-06T14:46:16;15.20;;;3.70;;
40537;SDS011;27925;41.874;12.526;2023-08-06T14:48:42;13.85;;;3.90;;
40537;SDS011;27925;41.874;12.526;2023-08-06T14:51:08;19.70;;;4.95;;
40537;SDS011;27925;41.874;12.526;2023-08-06T14:53:34;18.92;;;5.05;;
40537;SDS011;27925;41.874;12.526;2023-08-06T14:56:00;16.10;;;4.72;;
40537;SDS011;27925;41.874;12.526;2023-08-06T14:58:25;15.30;;;4.82;;
40537;SDS011;27925;41.874;12.526;2023-08-06T15:00:52;20.58;;;5.25;;
40537;SDS011;27925;41.874;12.526;2023-08-06T15:03:17;18.10;;;5.07;;